Time;durP1;ratioP1;P1;durP2;ratioP2;P2;SDS_P1;SDS_P2;PMS_P1;PMS_P2;Temp;Humidity;BMP_temperature;BMP_pressure;BME280_temperature;BME280_humidity;BME280_pressure;Samples;Min_cycle;Max_cycle;Signal;HPM_P1;HPM_P2
2024/01/25 06:00:38;;;;;;;8.60;0.90;;;;;;;9.81;88.86;101455.31;5505103;23;20070;-86
2024/01/25 06:03:04;;;;;;;10.52;1.17;;;;;;;9.83;88.86;101455.03;4978649;28;20034;-86
2024/01/25 06:05:30;;;;;;;7.22;1.23;;;;;;;9.59;89.89;101463.75;4983431;28;20447;-85
2024/01/25 06:07:56;;;;;;;2.20;0.73;;;;;;;9.49;90.46;101468.72;4976384;28;20096;-84
2024/01/25 06:10:21;;;;;;;9.95;1.80;;;;;;;9.58;89.74;101485.59;4986590;28;20030;-85
2024/01/25 06:28:40;;;;;;;8.52;1.15;;;;;;;9.56;89.55;101496.66;5453470;23;20057;-83
2024/01/25 06:31:13;;;;;;;24.08;1.52;;;;;;;9.58;90.12;101496.34;4989382;28;20125;-84
2024/01/25 06:33:47;;;;;;;5.18;1.77;;;;;;;9.54;89.83;101504.25;4979654;28;20564;-84
2024/01/25 06:36:33;;;;;;;7.35;1.13;;;;;;;9.53;90.26;101518.03;5006283;28;20052;-83
2024/01/25 06:38:59;;;;;;;7.45;1.45;;;;;;;9.43;90.17;101511.13;5005222;28;20022;-83
2024/01/25 06:41:27;;;;;;;5.32;1.80;;;;;;;9.40;90.72;101513.69;4998807;28;20027;-84
2024/01/25 06:43:52;;;;;;;2.92;0.43;;;;;;;9.44;90.30;101525.38;4978555;28;20565;-83
2024/01/25 06:46:21;;;;;;;10.05;1.67;;;;;;;9.46;90.32;101533.91;4991217;28;20042;-83
2024/01/25 06:52:48;;;;;;;3.33;0.60;;;;;;;9.48;89.85;101526.28;4977077;28;20158;-82
2024/01/25 06:55:13;;;;;;;5.30;1.35;;;;;;;9.48;90.19;101526.28;4993845;28;20038;-83
2024/01/25 06:57:39;;;;;;;11.18;2.15;;;;;;;9.51;90.00;101537.19;4993132;28;20040;-83
2024/01/25 07:00:06;;;;;;;3.92;1.23;;;;;;;9.59;89.11;101533.66;4977145;28;21502;-84
2024/01/25 07:02:34;;;;;;;7.03;1.63;;;;;;;9.48;90.07;101537.03;4994075;28;20373;-83
2024/01/25 07:05:05;;;;;;;6.15;1.58;;;;;;;9.47;90.11;101533.56;4977740;28;20038;-84
2024/01/25 07:07:41;;;;;;;1.27;0.40;;;;;;;9.57;89.73;101543.16;4977028;28;20034;-83
2024/01/25 07:10:07;;;;;;;4.15;1.13;;;;;;;9.44;90.89;101538.81;4990528;28;20092;-85
2024/01/25 07:12:49;;;;;;;4.93;1.05;;;;;;;9.48;89.69;101540.53;4978579;28;21201;-85
2024/01/25 07:16:30;;;;;;;;;;;;;;;;;;;;;
2024/01/25 07:19:49;;;;;;;7.38;1.17;;;;;;;9.42;90.41;101557.16;4994130;28;20042;-85
2024/01/25 07:22:41;;;;;;;;;;;;;;;;;;;;;
2024/01/25 07:25:33;;;;;;;4.85;0.85;;;;;;;9.41;90.54;101563.63;4999730;28;20133;-85
2024/01/25 07:28:56;;;;;;;;;;;;;;;;;;;;;
2024/01/25 07:31:27;;;;;;;6.00;1.20;;;;;;;9.45;90.44;101570.72;4959803;28;20097;-84
2024/01/25 07:34:53;;;;;;;3.30;1.25;;;;;;;9.35;91.15;101573.00;4981230;28;20030;-85
2024/01/25 07:37:49;;;;;;;1.42;0.90;;;;;;;9.38;91.62;101575.03;4998270;28;20034;-85
2024/01/25 07:40:56;;;;;;;;;;;;;;;;;;;;;
2024/01/25 07:55:04;;;;;;;;;;;;;;;;;;;;;
2024/01/25 08:33:25;;;;;;;4.38;0.95;;;;;;;9.42;92.01;101602.84;5656382;23;20058;-80
2024/01/25 08:35:51;;;;;;;7.57;0.88;;;;;;;9.45;92.46;101596.81;4956795;28;20509;-80
2024/01/25 08:38:16;;;;;;;5.03;1.25;;;;;;;9.43;92.80;101612.47;4934766;28;20027;-80
2024/01/25 08:40:42;;;;;;;11.02;1.90;;;;;;;9.53;92.43;101604.84;4996885;28;20242;-80
2024/01/25 08:43:07;;;;;;;8.73;1.75;;;;;;;9.71;91.82;101622.50;4976363;28;20046;-80
2024/01/25 08:45:33;;;;;;;11.50;1.23;;;;;;;9.64;91.44;101619.50;4959977;28;20532;-80
2024/01/25 08:47:59;;;;;;;10.65;1.13;;;;;;;9.49;91.80;101625.44;4962377;28;20026;-80
2024/01/25 08:50:25;;;;;;;11.80;1.20;;;;;;;9.59;91.56;101632.34;4977786;28;20520;-80
2024/01/25 08:52:51;;;;;;;7.93;1.40;;;;;;;9.68;90.87;101638.47;4965749;28;20035;-80
2024/01/25 08:55:16;;;;;;;4.43;0.82;;;;;;;9.67;90.67;101636.91;4943727;28;20027;-80
2024/01/25 08:57:42;;;;;;;3.33;0.82;;;;;;;9.67;91.54;101635.00;4935919;29;20043;-81
2024/01/25 09:00:10;;;;;;;6.47;1.13;;;;;;;9.62;90.80;101635.19;4957511;28;20098;-81
2024/01/25 09:02:37;;;;;;;1.27;0.68;;;;;;;9.58;91.34;101642.31;4940857;29;20039;-80
2024/01/25 09:05:04;;;;;;;5.95;1.88;;;;;;;9.68;90.56;101636.56;4941014;29;20035;-80
2024/01/25 09:07:30;;;;;;;5.85;1.25;;;;;;;9.63;91.12;101652.09;4942026;28;20031;-80
2024/01/25 09:09:55;;;;;;;5.07;1.15;;;;;;;9.71;90.54;101640.53;4958505;28;20078;-80
2024/01/25 09:12:20;;;;;;;3.38;1.23;;;;;;;9.73;90.89;101649.06;4959450;28;20035;-80
2024/01/25 09:14:46;;;;;;;12.60;1.48;;;;;;;9.88;90.21;101659.25;4959543;28;20022;-80
2024/01/25 09:17:13;;;;;;;1.77;0.90;;;;;;;9.87;89.67;101663.84;4943502;28;20179;-80
2024/01/25 09:19:39;;;;;;;2.80;0.90;;;;;;;10.03;88.99;101658.69;4943847;28;20065;-80
2024/01/25 09:22:07;;;;;;;9.35;1.77;;;;;;;9.96;89.03;101659.22;4963533;28;20026;-80
2024/01/25 09:24:35;;;;;;;3.40;1.20;;;;;;;9.98;89.38;101665.06;4976166;28;20035;-80
2024/01/25 09:27:02;;;;;;;3.35;1.20;;;;;;;9.92;89.24;101666.38;4972014;28;20067;-80
2024/01/25 09:29:28;;;;;;;8.82;1.40;;;;;;;9.95;89.44;101671.09;4977604;28;20042;-80
2024/01/25 09:31:54;;;;;;;3.53;0.80;;;;;;;9.85;89.74;101673.38;4976746;28;20023;-80
2024/01/25 09:34:19;;;;;;;1.33;0.50;;;;;;;9.93;89.26;101675.22;4992729;28;20103;-80
2024/01/25 09:36:45;;;;;;;1.33;0.75;;;;;;;9.99;88.58;101676.59;4954327;29;20051;-80
2024/01/25 09:39:11;;;;;;;9.85;1.33;;;;;;;10.14;88.08;101691.44;4979082;28;20034;-80
2024/01/25 09:41:36;;;;;;;9.35;1.60;;;;;;;10.07;88.02;101685.75;4997018;28;20339;-80
2024/01/25 09:44:03;;;;;;;4.35;0.95;;;;;;;9.99;88.38;101706.19;4962359;28;20480;-81
2024/01/25 09:46:29;;;;;;;4.90;1.70;;;;;;;10.02;88.64;101705.56;4976379;28;20034;-71
2024/01/25 09:48:54;;;;;;;5.18;0.90;;;;;;;10.05;90.32;101702.22;4970674;28;20035;-80
2024/01/25 09:51:22;;;;;;;6.20;0.85;;;;;;;10.25;89.24;101714.16;4961478;28;20494;-80
2024/01/25 09:53:49;;;;;;;3.55;1.58;;;;;;;10.22;88.62;101710.22;4941764;28;20541;-80
2024/01/25 09:56:19;;;;;;;11.80;1.55;;;;;;;9.99;88.88;101719.66;4960339;28;20030;-80
2024/01/25 09:58:46;;;;;;;10.07;1.65;;;;;;;10.17;88.72;101715.81;4962253;28;20043;-79
2024/01/25 10:01:14;;;;;;;8.80;1.35;;;;;;;10.34;87.97;101718.38;4965293;28;20126;-81
2024/01/25 10:03:44;;;;;;;1.45;1.00;;;;;;;10.35;87.83;101724.56;4988176;28;20034;-80
2024/01/25 10:06:11;;;;;;;5.28;1.50;;;;;;;10.36;87.43;101732.31;4986548;28;20043;-79
2024/01/25 10:08:36;;;;;;;7.03;1.10;;;;;;;10.42;87.65;101728.31;4971985;28;20042;-80
2024/01/25 10:11:03;;;;;;;5.70;1.13;;;;;;;10.45;87.50;101738.41;4943123;28;20591;-79
2024/01/25 10:13:29;;;;;;;6.47;0.93;;;;;;;10.31;87.25;101737.91;4986644;28;20018;-79
2024/01/25 10:15:55;;;;;;;6.47;1.50;;;;;;;10.33;87.21;101743.75;4969058;28;20544;-80
2024/01/25 10:18:22;;;;;;;15.65;1.00;;;;;;;10.51;87.11;101737.13;4965627;28;20031;-80
2024/01/25 10:20:48;;;;;;;8.68;0.95;;;;;;;10.49;86.39;101749.34;4973788;28;20371;-79
2024/01/25 10:23:14;;;;;;;7.55;1.42;;;;;;;10.44;86.70;101750.31;4968417;28;20313;-80
2024/01/25 10:25:39;;;;;;;6.78;1.00;;;;;;;10.29;87.66;101758.97;4948446;28;20039;-80
2024/01/25 10:28:06;;;;;;;3.97;0.82;;;;;;;10.35;87.39;101754.19;4956361;28;20068;-81
2024/01/25 10:30:33;;;;;;;2.85;0.90;;;;;;;10.22;86.74;101742.53;4980449;28;20041;-80
2024/01/25 10:32:59;;;;;;;12.23;1.83;;;;;;;10.11;87.45;101762.84;4948166;28;20049;-80
2024/01/25 10:35:29;;;;;;;12.93;1.35;;;;;;;10.14;88.06;101762.22;4945940;28;20579;-80
2024/01/25 10:37:55;;;;;;;2.78;1.08;;;;;;;10.18;88.40;101762.34;4968757;28;20031;-80
2024/01/25 10:40:22;;;;;;;5.22;2.03;;;;;;;10.16;88.54;101756.50;4957230;28;20540;-80
2024/01/25 10:42:48;;;;;;;6.75;1.38;;;;;;;10.17;88.36;101756.19;4958811;28;20030;-80
2024/01/25 10:45:13;;;;;;;8.23;1.35;;;;;;;10.18;88.07;101749.66;4983018;28;20031;-79
2024/01/25 10:47:40;;;;;;;5.80;1.02;;;;;;;10.11;88.68;101746.69;4964392;28;20058;-80
2024/01/25 10:50:10;;;;;;;6.00;0.93;;;;;;;10.26;88.32;101748.06;4988797;28;20413;-80
2024/01/25 10:52:37;;;;;;;6.18;1.33;;;;;;;10.41;87.51;101737.53;4983234;28;20049;-80
2024/01/25 10:55:04;;;;;;;6.65;1.10;;;;;;;10.40;86.82;101735.94;4974098;28;20066;-80
2024/01/25 10:57:45;;;;;;;4.05;1.48;;;;;;;10.38;87.23;101737.38;4951228;28;20521;-80
2024/01/25 11:00:15;;;;;;;4.47;1.00;;;;;;;10.35;87.54;101743.41;4963809;28;20562;-80
2024/01/25 11:02:41;;;;;;;4.97;1.30;;;;;;;10.41;87.81;101748.28;4981423;28;20038;-80
2024/01/25 11:05:10;;;;;;;7.07;0.70;;;;;;;10.44;87.07;101754.91;4976802;28;20033;-80
2024/01/25 11:07:49;;;;;;;3.05;1.10;;;;;;;10.38;88.24;101762.41;4984787;28;20031;-80
2024/01/25 11:10:20;;;;;;;7.60;1.05;;;;;;;10.19;87.68;101762.03;4966149;28;20042;-80
2024/01/25 11:12:54;;;;;;;6.83;1.20;;;;;;;10.21;88.84;101767.88;4969109;28;20038;-79
2024/01/25 11:15:29;;;;;;;6.97;1.15;;;;;;;10.27;88.25;101769.28;4960052;28;20752;-80
2024/01/25 11:17:55;;;;;;;16.58;2.60;;;;;;;10.41;88.17;101760.97;4958406;28;20027;-80
2024/01/25 11:20:22;;;;;;;12.98;1.58;;;;;;;10.56;86.92;101763.88;4948326;28;20497;-80
2024/01/25 11:22:47;;;;;;;5.47;1.27;;;;;;;10.49;86.60;101762.81;4959881;28;20409;-80
2024/01/25 11:25:22;;;;;;;11.13;0.90;;;;;;;10.56;86.22;101768.47;4980700;28;20030;-80
2024/01/25 11:27:50;;;;;;;4.20;1.33;;;;;;;10.58;86.31;101768.94;4974946;28;20042;-80
2024/01/25 11:30:18;;;;;;;7.53;1.25;;;;;;;10.56;86.53;101766.56;4974344;28;20495;-80
2024/01/25 11:32:44;;;;;;;3.95;1.23;;;;;;;10.58;86.37;101777.81;4976121;28;20034;-80
2024/01/25 11:35:13;;;;;;;5.55;0.95;;;;;;;10.51;86.50;101765.97;4968007;28;20034;-80
2024/01/25 11:37:39;;;;;;;10.20;1.27;;;;;;;10.56;86.79;101755.78;4978711;28;20065;-80
2024/01/25 11:40:05;;;;;;;2.08;1.10;;;;;;;10.56;86.81;101763.06;4986751;28;20026;-80
2024/01/25 11:42:30;;;;;;;4.63;1.48;;;;;;;10.43;87.60;101764.13;4988140;28;20038;-80
2024/01/25 11:44:56;;;;;;;9.15;2.42;;;;;;;10.49;88.44;101752.81;4976740;28;20035;-80
2024/01/25 11:47:22;;;;;;;2.17;1.27;;;;;;;10.48;88.11;101753.94;4985651;28;20022;-80
2024/01/25 11:49:48;;;;;;;9.90;2.03;;;;;;;10.52;88.72;101757.56;4994824;28;20057;-80
2024/01/25 11:52:14;;;;;;;9.88;2.28;;;;;;;10.43;89.19;101754.13;4977209;28;20035;-80
2024/01/25 11:54:40;;;;;;;7.72;1.45;;;;;;;10.35;89.97;101746.91;4977611;28;20023;-80
2024/01/25 11:57:06;;;;;;;3.83;1.20;;;;;;;10.51;89.62;101752.50;4959791;28;20390;-80
2024/01/25 11:59:31;;;;;;;5.85;1.00;;;;;;;10.62;89.50;101748.31;4950369;28;20026;-80
2024/01/25 12:01:57;;;;;;;10.20;1.98;;;;;;;10.72;88.73;101756.78;4967567;28;20039;-80
2024/01/25 12:04:24;;;;;;;0.80;0.50;;;;;;;10.65;87.78;101764.59;4967314;28;20038;-79
2024/01/25 12:06:50;;;;;;;1.52;1.13;;;;;;;10.57;88.21;101749.28;4988888;28;20421;-79
2024/01/25 12:09:16;;;;;;;1.10;0.68;;;;;;;10.71;87.54;101760.59;4967129;28;20029;-79
2024/01/25 12:11:42;;;;;;;6.03;1.38;;;;;;;10.78;86.73;101755.47;4976242;28;20030;-80
2024/01/25 12:14:08;;;;;;;5.28;2.00;;;;;;;10.77;87.09;101770.06;4949603;28;20030;-79
2024/01/25 12:16:34;;;;;;;6.60;1.83;;;;;;;10.79;87.27;101773.22;4978439;28;20019;-80
2024/01/25 12:19:00;;;;;;;7.50;1.02;;;;;;;10.77;87.45;101772.75;4961759;28;20508;-80
2024/01/25 12:21:25;;;;;;;6.15;1.20;;;;;;;10.71;87.44;101767.88;4968456;28;20057;-80
2024/01/25 12:23:51;;;;;;;5.55;1.52;;;;;;;10.67;88.25;101773.16;4970033;28;20453;-80
2024/01/25 12:26:17;;;;;;;8.00;1.63;;;;;;;10.75;88.11;101782.28;4970417;28;20034;-80
2024/01/25 12:28:42;;;;;;;5.13;1.42;;;;;;;10.67;89.12;101769.66;4981920;28;20049;-80
2024/01/25 12:31:08;;;;;;;6.38;1.23;;;;;;;10.64;88.93;101771.13;4982719;28;20038;-79
2024/01/25 12:33:35;;;;;;;8.18;1.73;;;;;;;10.53;88.84;101761.81;4961980;28;20058;-79
2024/01/25 12:36:02;;;;;;;4.65;0.95;;;;;;;10.46;88.63;101769.63;4982438;28;20039;-79
2024/01/25 12:38:29;;;;;;;3.92;1.60;;;;;;;10.46;88.88;101769.63;4989230;28;20094;-79
2024/01/25 12:40:55;;;;;;;4.43;1.33;;;;;;;10.31;88.33;101769.41;4981651;28;20446;-80
2024/01/25 12:43:24;;;;;;;2.88;0.95;;;;;;;10.24;88.03;101771.84;4970561;28;20065;-80
2024/01/25 12:45:49;;;;;;;2.75;1.27;;;;;;;10.27;88.57;101777.34;4969675;28;20110;-80
2024/01/25 12:48:15;;;;;;;6.18;1.67;;;;;;;10.17;88.39;101769.63;4967449;28;20062;-80
2024/01/25 12:50:41;;;;;;;6.00;1.80;;;;;;;10.28;87.19;101778.91;4971128;28;20030;-81
2024/01/25 12:53:08;;;;;;;7.72;2.10;;;;;;;10.24;87.84;101774.53;4978955;28;21350;-82
2024/01/25 12:55:34;;;;;;;5.97;1.35;;;;;;;10.34;87.67;101774.94;4974614;28;20053;-83
2024/01/25 12:58:00;;;;;;;6.70;1.05;;;;;;;10.40;87.65;101765.56;4985305;28;20035;-82
2024/01/25 13:00:26;;;;;;;11.70;1.42;;;;;;;10.36;87.17;101767.31;4969547;28;20023;-83
2024/01/25 13:02:53;;;;;;;7.22;1.42;;;;;;;10.33;87.22;101776.06;4968829;28;20117;-82
2024/01/25 13:05:19;;;;;;;6.72;1.00;;;;;;;10.35;87.02;101773.81;4964780;28;20103;-81
2024/01/25 13:07:45;;;;;;;6.15;1.38;;;;;;;10.36;86.66;101777.28;4972404;28;20377;-82
2024/01/25 13:10:13;;;;;;;11.95;2.10;;;;;;;10.46;85.23;101764.25;4959936;28;20130;-82
2024/01/25 13:12:39;;;;;;;13.45;1.35;;;;;;;10.27;85.83;101776.56;4977540;28;20091;-82
2024/01/25 13:15:05;;;;;;;9.85;2.08;;;;;;;10.20;87.13;101768.22;4973692;28;20065;-74
2024/01/25 13:17:31;;;;;;;5.07;1.08;;;;;;;10.30;87.12;101776.69;4968491;28;20493;-83
2024/01/25 13:19:59;;;;;;;10.23;1.83;;;;;;;10.52;85.44;101767.53;4973471;28;20123;-82
2024/01/25 13:22:25;;;;;;;7.00;0.73;;;;;;;10.43;85.63;101781.03;4944477;28;20034;-82
2024/01/25 13:24:51;;;;;;;6.13;1.02;;;;;;;10.43;85.25;101767.56;4976053;28;20497;-82
2024/01/25 13:27:16;;;;;;;7.80;1.10;;;;;;;10.39;85.51;101769.38;4977317;28;20042;-83
2024/01/25 13:29:42;;;;;;;1.73;1.05;;;;;;;10.41;85.48;101763.66;4980505;28;20033;-83
2024/01/25 13:32:08;;;;;;;4.95;1.00;;;;;;;10.30;85.72;101765.16;4961080;28;20485;-83
2024/01/25 13:34:34;;;;;;;7.10;2.00;;;;;;;10.22;84.96;101774.06;4986339;28;20034;-83
2024/01/25 13:36:59;;;;;;;8.23;1.23;;;;;;;10.40;84.82;101764.75;4955875;28;20035;-82
2024/01/25 13:39:25;;;;;;;1.05;0.88;;;;;;;10.51;84.28;101772.13;4964954;28;20069;-85
2024/01/25 13:41:51;;;;;;;4.35;1.13;;;;;;;10.37;84.63;101768.91;4966642;28;20054;-86
2024/01/25 13:44:17;;;;;;;2.97;0.52;;;;;;;10.50;84.78;101769.75;4966782;28;20023;-84
2024/01/25 13:46:43;;;;;;;6.10;1.15;;;;;;;10.51;84.70;101774.06;4971239;28;20076;-83
2024/01/25 13:49:08;;;;;;;8.85;1.10;;;;;;;10.68;84.10;101777.41;4968629;28;20218;-82
2024/01/25 13:51:34;;;;;;;1.48;0.43;;;;;;;10.69;83.96;101791.66;4952723;28;20586;-82
2024/01/25 13:54:00;;;;;;;1.42;0.80;;;;;;;10.62;83.63;101791.41;4970660;28;20126;-82
2024/01/25 13:56:25;;;;;;;1.38;0.82;;;;;;;10.59;84.50;101782.06;4969734;28;20035;-82
2024/01/25 13:58:51;;;;;;;7.47;0.70;;;;;;;10.55;83.41;101794.59;4987233;28;20457;-82
2024/01/25 14:01:17;;;;;;;2.92;0.30;;;;;;;10.62;83.25;101794.91;4983384;28;20031;-82
2024/01/25 14:03:42;;;;;;;3.75;0.98;;;;;;;10.62;83.49;101792.19;4984064;28;20070;-82
2024/01/25 14:06:09;;;;;;;6.35;1.67;;;;;;;10.46;83.79;101795.78;4982625;28;20114;-82
2024/01/25 14:08:36;;;;;;;3.92;0.57;;;;;;;10.52;83.10;101795.28;4966001;28;20031;-82
2024/01/25 14:11:02;;;;;;;2.05;0.93;;;;;;;10.47;83.29;101794.66;4967318;28;20047;-82
2024/01/25 14:13:28;;;;;;;1.65;1.05;;;;;;;10.65;82.64;101794.22;4986781;28;20041;-80
2024/01/25 14:15:53;;;;;;;5.45;0.68;;;;;;;10.75;82.42;101787.66;4966241;28;20057;-82
2024/01/25 14:18:19;;;;;;;4.22;1.55;;;;;;;10.86;82.29;101784.25;4969979;28;20039;-82
2024/01/25 14:20:44;;;;;;;8.65;0.80;;;;;;;10.75;82.64;101799.25;4976927;28;20030;-82
2024/01/25 14:23:09;;;;;;;4.53;0.75;;;;;;;10.87;82.17;101791.25;4963617;28;20125;-82
2024/01/25 14:25:35;;;;;;;1.20;0.65;;;;;;;10.96;82.17;101793.84;4986015;28;20050;-82
2024/01/25 14:28:00;;;;;;;8.48;1.08;;;;;;;10.92;82.70;101789.47;4973760;28;20067;-82
2024/01/25 14:30:26;;;;;;;4.05;0.93;;;;;;;10.77;82.88;101785.44;4984895;28;20086;-82
2024/01/25 14:32:51;;;;;;;10.13;1.85;;;;;;;10.84;82.82;101781.09;4987993;28;20042;-82
2024/01/25 14:35:17;;;;;;;5.50;1.42;;;;;;;10.92;82.75;101781.38;4982925;28;20027;-82
2024/01/25 14:37:42;;;;;;;8.73;1.40;;;;;;;10.78;83.60;101779.72;4982744;28;20046;-82
2024/01/25 14:40:08;;;;;;;1.42;0.82;;;;;;;10.92;82.96;101778.69;4988091;28;20022;-82
2024/01/25 14:42:33;;;;;;;6.05;1.02;;;;;;;10.90;83.69;101781.69;4947499;28;20030;-81
2024/01/25 14:44:59;;;;;;;0.77;0.77;;;;;;;10.89;83.03;101775.53;4979417;28;20531;-81
2024/01/25 14:47:24;;;;;;;2.05;1.08;;;;;;;10.92;83.32;101776.75;4982183;28;20066;-82
2024/01/25 14:49:51;;;;;;;1.77;0.80;;;;;;;10.97;83.50;101784.66;4962624;28;20022;-82
2024/01/25 14:52:17;;;;;;;2.05;1.23;;;;;;;11.02;83.70;101783.66;4986564;28;20520;-81
2024/01/25 14:54:43;;;;;;;1.33;0.77;;;;;;;11.01;83.59;101788.28;4982073;28;20027;-82
2024/01/25 14:57:08;;;;;;;4.05;1.02;;;;;;;10.99;83.67;101792.41;4978614;28;20038;-82
2024/01/25 14:59:34;;;;;;;1.15;0.80;;;;;;;10.97;83.33;101794.66;4965176;28;20076;-82
2024/01/25 15:01:59;;;;;;;3.55;1.73;;;;;;;10.96;83.46;101783.06;4950769;28;20035;-82
2024/01/25 15:04:29;;;;;;;1.85;1.08;;;;;;;10.94;84.14;101784.53;4975352;28;20705;-82
2024/01/25 15:06:55;;;;;;;5.28;0.80;;;;;;;10.92;83.71;101786.78;4985556;28;20045;-82
2024/01/25 15:09:21;;;;;;;10.45;0.95;;;;;;;10.87;84.14;101777.75;4986928;28;20403;-82
2024/01/25 15:11:47;;;;;;;3.88;0.60;;;;;;;10.79;84.29;101792.09;4982629;28;20035;-82
2024/01/25 15:14:14;;;;;;;7.45;1.17;;;;;;;10.77;84.43;101793.53;4979050;28;20075;-82
2024/01/25 15:16:40;;;;;;;4.45;1.67;;;;;;;10.84;83.49;101793.78;4967379;28;20042;-82
2024/01/25 15:19:06;;;;;;;8.45;1.73;;;;;;;10.63;84.26;101801.84;4980449;28;20045;-82
2024/01/25 15:21:31;;;;;;;4.18;0.80;;;;;;;10.63;84.12;101801.84;4969962;28;20117;-82
2024/01/25 15:23:57;;;;;;;6.82;2.03;;;;;;;10.61;83.11;101804.06;4976249;28;20046;-82
2024/01/25 15:26:22;;;;;;;3.45;0.85;;;;;;;10.62;83.21;101807.56;4971540;28;20075;-82
2024/01/25 15:28:48;;;;;;;2.35;1.00;;;;;;;10.70;83.02;101802.09;4971773;28;20133;-81
2024/01/25 15:31:15;;;;;;;2.97;1.00;;;;;;;10.63;83.25;101796.47;4974930;28;20042;-82
2024/01/25 15:33:41;;;;;;;4.60;0.98;;;;;;;10.61;82.64;101806.78;4978252;28;20030;-81
2024/01/25 15:36:07;;;;;;;7.05;1.20;;;;;;;10.47;83.03;101797.38;4956605;28;20038;-81
2024/01/25 18:34:14;;;;;;;2.55;2.00;;;;;;;9.23;88.35;101787.91;5371555;23;20065;-91
2024/01/25 18:36:57;;;;;;;3.92;1.70;;;;;;;9.21;88.27;101787.41;4955495;28;20039;-93
2024/01/25 18:39:31;;;;;;;3.95;1.25;;;;;;;9.19;88.49;101778.88;4951199;28;20061;-92
2024/01/25 18:42:52;;;;;;;;;;;;;;;;;;;;;
2024/01/25 18:59:31;;;;;;;4.05;1.10;;;;;;;9.06;88.75;101770.66;4973484;28;20075;-90
2024/01/25 19:02:30;;;;;;;9.30;1.73;;;;;;;8.99;88.71;101778.41;4957523;28;20035;-91
2024/01/25 19:05:06;;;;;;;1.75;1.60;;;;;;;8.89;89.38;101780.59;4956227;28;20045;-90
2024/01/25 19:07:38;;;;;;;4.45;1.90;;;;;;;8.87;89.41;101778.25;4954176;28;20058;-90
2024/01/25 19:10:07;;;;;;;7.03;1.42;;;;;;;8.87;89.57;101774.75;4954182;28;20051;-90
2024/01/25 19:12:47;;;;;;;5.03;1.35;;;;;;;8.87;89.62;101770.19;4973392;28;20041;-90
2024/01/25 19:15:20;;;;;;;5.78;1.77;;;;;;;8.87;89.04;101766.72;4970221;28;20062;-84
2024/01/25 19:17:53;;;;;;;9.50;1.65;;;;;;;8.75;89.44;101767.34;4950505;28;20072;-88
2024/01/25 19:20:41;;;;;;;3.30;1.27;;;;;;;8.75;89.65;101761.97;4944527;28;20501;-89
2024/01/25 19:23:39;;;;;;;3.10;1.98;;;;;;;8.66;89.88;101769.22;4933435;28;20046;-87
2024/01/25 19:26:35;;;;;;;;;;;;;;;;;;;;;
2024/01/25 19:29:15;;;;;;;6.22;1.30;;;;;;;8.63;89.05;101767.16;4950204;28;20043;-89
2024/01/25 19:32:25;;;;;;;;;;;;;;;;;;;;;
2024/01/25 19:35:02;;;;;;;;;;;;;;;;;;;;;
2024/01/25 19:52:32;;;;;;;6.28;1.55;;;;;;;8.27;91.45;101769.28;4856696;29;20056;-90
2024/01/25 19:55:11;;;;;;;10.73;1.60;;;;;;;8.20;91.54;101774.28;4890512;28;20520;-87
2024/01/25 19:57:50;;;;;;;;;;;;;;;;;;;;;
2024/01/25 20:00:22;;;;;;;5.72;1.42;;;;;;;8.21;91.21;101763.25;4962412;28;21656;-89
2024/01/25 20:02:48;;;;;;;5.10;2.30;;;;;;;8.16;92.10;101752.66;4949028;28;20539;-88
2024/01/25 20:05:16;;;;;;;3.50;1.52;;;;;;;8.16;91.56;101762.59;4943412;28;20073;-88
2024/01/25 20:07:45;;;;;;;7.22;2.75;;;;;;;8.19;91.25;101761.97;4968609;28;20040;-89
2024/01/25 20:10:28;;;;;;;4.05;2.03;;;;;;;8.08;91.95;101772.19;4941087;28;20415;-88
2024/01/25 20:13:14;;;;;;;2.85;1.45;;;;;;;8.09;92.04;101768.41;4958807;28;20041;-90
2024/01/25 20:15:40;;;;;;;6.20;2.38;;;;;;;8.14;92.53;101767.47;4955873;28;20035;-89
2024/01/25 20:22:44;;;;;;;4.38;1.70;;;;;;;8.07;92.46;101759.09;4971068;28;20041;-90
2024/01/25 20:25:15;;;;;;;7.13;1.67;;;;;;;8.09;92.94;101764.94;4928332;28;20129;-91
2024/01/25 20:27:50;;;;;;;4.57;2.00;;;;;;;8.04;92.51;101759.72;4940623;28;20034;-91
2024/01/25 20:30:22;;;;;;;6.03;1.58;;;;;;;8.07;92.68;101754.50;4927813;28;20039;-90
2024/01/25 20:33:06;;;;;;;3.78;1.83;;;;;;;8.08;92.27;101755.31;4944381;28;20349;-91
2024/01/25 20:35:40;;;;;;;1.83;1.13;;;;;;;8.10;92.33;101763.84;4946007;28;20031;-90
2024/01/25 20:38:06;;;;;;;6.55;1.80;;;;;;;8.07;91.91;101738.41;4963197;28;20042;-89
2024/01/25 20:40:31;;;;;;;9.48;2.28;;;;;;;8.03;92.61;101742.06;4944449;28;20124;-90
2024/01/25 20:43:06;;;;;;;4.90;2.20;;;;;;;8.06;92.52;101736.06;4942208;28;20038;-90
2024/01/25 20:45:52;;;;;;;7.05;2.22;;;;;;;8.18;91.45;101731.69;4976503;28;20109;-91
2024/01/25 20:48:47;;;;;;;5.45;1.40;;;;;;;8.10;91.50;101734.31;4939015;28;20046;-88
2024/01/25 20:51:37;;;;;;;2.00;1.45;;;;;;;8.06;92.08;101733.38;4935125;28;20038;-88
2024/01/25 20:54:12;;;;;;;12.27;1.75;;;;;;;8.03;92.22;101734.00;4941067;28;20430;-88
2024/01/25 20:56:41;;;;;;;5.40;1.77;;;;;;;8.06;91.93;101728.00;4957474;28;20038;-89
2024/01/25 20:59:12;;;;;;;7.78;2.97;;;;;;;8.03;92.34;101736.69;4943933;28;20060;-88
2024/01/25 21:01:41;;;;;;;6.90;3.05;;;;;;;8.07;92.54;101732.28;4961938;28;20038;-89
2024/01/25 21:06:49;;;;;;;4.35;2.40;;;;;;;8.06;93.29;101722.63;5136687;23;20041;-88
2024/01/25 21:09:15;;;;;;;2.97;1.73;;;;;;;8.09;93.19;101717.44;4977501;28;20048;-87
2024/01/25 21:11:41;;;;;;;7.90;2.17;;;;;;;8.16;92.54;101715.09;4978658;28;20038;-87
2024/01/25 21:14:09;;;;;;;9.63;3.35;;;;;;;8.28;92.46;101719.09;4995500;28;20022;-88
2024/01/25 21:16:35;;;;;;;8.70;2.67;;;;;;;8.32;92.10;101717.38;4998917;28;20368;-87
2024/01/25 21:19:06;;;;;;;6.03;2.13;;;;;;;8.28;92.77;101722.59;4977821;28;20504;-87
2024/01/25 21:21:33;;;;;;;5.18;2.35;;;;;;;8.35;92.23;101724.78;4979055;28;20117;-87
2024/01/25 21:23:59;;;;;;;4.32;2.10;;;;;;;8.41;91.90;101720.84;4981598;28;20038;-87
2024/01/25 21:26:24;;;;;;;13.10;2.28;;;;;;;8.39;92.19;101721.19;4980063;28;20022;-88
2024/01/25 21:28:52;;;;;;;5.97;2.00;;;;;;;8.51;91.49;101716.00;4980837;28;20037;-87
2024/01/25 21:31:18;;;;;;;8.52;2.58;;;;;;;8.46;91.29;101712.66;4965449;28;20031;-87
2024/01/25 21:33:47;;;;;;;2.80;1.80;;;;;;;8.42;91.86;101709.03;4984229;28;20042;-87
2024/01/25 21:36:12;;;;;;;2.53;1.83;;;;;;;8.33;92.38;101706.31;4980925;28;20038;-90
2024/01/25 21:38:41;;;;;;;8.40;1.95;;;;;;;8.37;92.66;101704.59;4963756;28;20123;-87
2024/01/25 21:41:12;;;;;;;4.78;2.63;;;;;;;8.38;92.55;101700.03;4980985;28;20425;-87
2024/01/25 21:43:37;;;;;;;3.83;2.25;;;;;;;8.50;91.95;101698.28;4999910;28;20023;-88
2024/01/25 21:46:05;;;;;;;5.32;2.03;;;;;;;8.58;91.38;101696.72;4984005;28;20439;-87
2024/01/25 21:48:31;;;;;;;4.28;1.95;;;;;;;8.57;91.22;101695.94;4996248;28;20050;-87
2024/01/25 21:50:57;;;;;;;1.88;1.33;;;;;;;8.50;91.58;101702.84;4981233;28;20040;-88
2024/01/25 21:53:22;;;;;;;9.48;1.92;;;;;;;8.41;92.06;101702.88;4979292;28;20038;-88
2024/01/25 21:55:48;;;;;;;6.22;1.70;;;;;;;8.41;92.07;101710.13;4985556;28;20018;-87
2024/01/25 21:58:13;;;;;;;10.80;2.13;;;;;;;8.36;93.01;101710.28;4990335;28;20041;-88
2024/01/25 22:00:39;;;;;;;4.90;1.77;;;;;;;8.42;92.37;101704.44;4983951;28;20033;-87
2024/01/25 22:03:04;;;;;;;8.80;2.60;;;;;;;8.54;91.74;101703.81;4988353;28;20493;-88
2024/01/25 22:05:30;;;;;;;3.50;1.65;;;;;;;8.58;91.18;101700.19;4969774;28;20026;-88
2024/01/25 22:07:56;;;;;;;3.97;2.35;;;;;;;8.62;90.58;101698.47;4981939;28;20038;-88
2024/01/25 22:10:21;;;;;;;2.03;1.40;;;;;;;8.48;91.35;101697.81;4988163;28;20030;-88
2024/01/25 22:12:47;;;;;;;7.38;1.75;;;;;;;8.45;91.72;101690.41;4992183;28;20045;-87
2024/01/25 22:15:12;;;;;;;8.48;2.30;;;;;;;8.53;91.49;101695.00;4978222;28;20068;-87
2024/01/25 22:17:38;;;;;;;3.90;2.00;;;;;;;8.41;91.91;101688.66;4967383;28;20034;-87
2024/01/25 22:20:04;;;;;;;4.60;2.08;;;;;;;8.44;91.88;101694.19;4997371;28;20062;-87
2024/01/25 22:22:30;;;;;;;12.57;3.60;;;;;;;8.45;91.71;101679.66;4985680;28;20049;-87
2024/01/25 22:24:55;;;;;;;6.97;2.28;;;;;;;8.43;91.81;101687.25;4985826;28;20019;-87
2024/01/25 22:27:21;;;;;;;1.60;1.48;;;;;;;8.47;91.36;101682.81;4988179;28;20054;-87
2024/01/25 22:29:47;;;;;;;6.93;2.53;;;;;;;8.52;91.39;101681.88;4969638;28;20038;-87
2024/01/25 22:32:12;;;;;;;5.45;1.00;;;;;;;8.43;91.39;101675.72;4984720;28;20022;-87